Time;durP1;ratioP1;P1;durP2;ratioP2;P2;SDS_P1;SDS_P2;PMS_P1;PMS_P2;Temp;Humidity;BMP_temperature;BMP_pressure;BME280_temperature;BME280_humidity;BME280_pressure;Samples;Min_cycle;Max_cycle;Signal;HPM_P1;HPM_P2
2020/12/27 00:01:10;;;;;;;16.02;9.98;;;;;;;-0.43;92.05;99173.59;1711576;81;21011;-67
2020/12/27 00:03:41;;;;;;;16.12;10.40;;;;;;;-0.41;92.11;99174.42;1713265;83;21096;-67
2020/12/27 00:06:10;;;;;;;14.07;9.20;;;;;;;-0.43;92.01;99171.02;1734557;81;21640;-68
2020/12/27 00:08:39;;;;;;;16.85;9.85;;;;;;;-0.41;92.03;99166.73;1709145;81;21271;-67
2020/12/27 00:11:06;;;;;;;14.28;9.68;;;;;;;-0.42;92.00;99159.04;1744142;81;21203;-67
2020/12/27 00:13:35;;;;;;;15.48;8.98;;;;;;;-0.42;92.00;99157.34;1729466;82;21576;-67
2020/12/27 00:16:03;;;;;;;16.50;9.80;;;;;;;-0.42;91.98;99158.63;1728713;80;21102;-67
2020/12/27 00:18:32;;;;;;;14.98;9.40;;;;;;;-0.44;92.03;99159.08;1706769;83;21164;-67
2020/12/27 00:21:00;;;;;;;12.80;9.75;;;;;;;-0.43;92.09;99156.07;1726728;80;20985;-67
2020/12/27 00:23:28;;;;;;;13.80;10.63;;;;;;;-0.43;92.00;99153.06;1714355;82;21255;-67
2020/12/27 00:25:57;;;;;;;12.80;9.40;;;;;;;-0.43;92.03;99163.33;1698280;83;21682;-67
2020/12/27 00:28:27;;;;;;;13.18;9.53;;;;;;;-0.43;92.04;99154.35;1717913;82;21219;-67
2020/12/27 00:30:54;;;;;;;13.15;9.15;;;;;;;-0.44;91.93;99151.38;1744524;81;21131;-67
2020/12/27 00:33:22;;;;;;;13.15;9.50;;;;;;;-0.46;91.95;99137.72;1727149;82;21136;-67
2020/12/27 00:35:51;;;;;;;15.45;9.18;;;;;;;-0.46;92.05;99140.28;1736762;81;21141;-68
2020/12/27 00:38:20;;;;;;;14.50;9.28;;;;;;;-0.45;91.98;99150.94;1717809;82;21066;-67
2020/12/27 00:40:48;;;;;;;12.15;9.60;;;;;;;-0.44;92.00;99151.38;1735655;81;21027;-67
2020/12/27 00:43:17;;;;;;;13.35;9.55;;;;;;;-0.43;91.99;99142.81;1779035;78;20992;-67
2020/12/27 00:45:45;;;;;;;11.75;9.20;;;;;;;-0.42;92.02;99150.94;1778200;79;21223;-67
2020/12/27 00:48:14;;;;;;;12.63;9.70;;;;;;;-0.41;91.98;99135.11;1770584;78;21208;-67
2020/12/27 00:51:03;;;;;;;13.38;9.28;;;;;;;-0.41;91.87;99135.95;1742264;81;21020;-67
2020/12/27 00:53:30;;;;;;;14.50;9.95;;;;;;;-0.42;92.00;99134.27;1660092;84;21177;-68
2020/12/27 00:56:00;;;;;;;11.10;8.85;;;;;;;-0.43;91.83;99122.28;1661724;84;21122;-67
2020/12/27 00:58:31;;;;;;;11.65;9.25;;;;;;;-0.44;91.94;99125.73;1689517;84;21135;-68
2020/12/27 01:01:00;;;;;;;12.43;9.58;;;;;;;-0.44;91.96;99118.04;1685880;84;21747;-67
2020/12/27 01:03:28;;;;;;;14.07;9.60;;;;;;;-0.44;91.96;99119.32;1666362;84;21167;-67
2020/12/27 01:05:56;;;;;;;13.45;9.30;;;;;;;-0.44;91.99;99123.17;1681123;84;21066;-67
2020/12/27 01:08:33;;;;;;;13.55;9.23;;;;;;;-0.44;91.94;99121.88;1671793;84;21161;-67
2020/12/27 01:11:02;;;;;;;13.78;10.30;;;;;;;-0.43;91.96;99119.72;1681230;84;21257;-68
2020/12/27 01:13:30;;;;;;;13.22;9.20;;;;;;;-0.44;91.96;99116.75;1679317;84;21587;-67
2020/12/27 01:15:59;;;;;;;13.25;10.55;;;;;;;-0.43;91.99;99109.47;1678119;83;21055;-68
2020/12/27 01:18:27;;;;;;;12.90;9.28;;;;;;;-0.41;91.93;99118.00;1674588;84;21244;-67
2020/12/27 01:20:55;;;;;;;;;;;;;;;-0.43;91.92;99112.03;1680661;84;21068;-67
2020/12/27 01:23:23;;;;;;;14.40;9.98;;;;;;;-0.44;91.97;99111.63;1679576;84;20477;-67
2020/12/27 01:25:51;;;;;;;15.32;9.58;;;;;;;-0.44;91.96;99112.91;1680841;83;21403;-67
2020/12/27 01:28:19;;;;;;;14.10;9.58;;;;;;;-0.45;91.95;99113.75;1681440;83;21174;-67
2020/12/27 01:30:48;;;;;;;13.65;9.40;;;;;;;-0.44;92.00;99116.75;1675220;84;21203;-67
2020/12/27 01:33:15;;;;;;;12.98;9.18;;;;;;;-0.43;91.97;99109.47;1679916;84;21211;-68
2020/12/27 01:35:46;;;;;;;16.70;9.35;;;;;;;-0.43;91.99;99105.62;1671543;84;21693;-67
2020/12/27 01:38:15;;;;;;;15.35;10.43;;;;;;;-0.43;91.96;99095.36;1676816;84;21226;-68
2020/12/27 01:40:43;;;;;;;13.22;9.40;;;;;;;-0.43;91.94;99076.13;1676673;84;21122;-67
2020/12/27 01:43:12;;;;;;;20.15;10.28;;;;;;;-0.43;91.99;99073.56;1680652;84;21226;-68
2020/12/27 01:45:40;;;;;;;14.63;9.23;;;;;;;-0.43;91.93;99059.45;1676452;84;21146;-67
2020/12/27 01:48:13;;;;;;;11.65;8.58;;;;;;;-0.41;91.95;99052.59;1680399;84;21188;-67
2020/12/27 01:50:41;;;;;;;13.28;8.70;;;;;;;-0.42;91.88;99044.50;1679896;84;21645;-67
2020/12/27 01:53:13;;;;;;;11.28;9.10;;;;;;;-0.41;91.97;99035.92;1669472;85;21188;-68
2020/12/27 01:55:41;;;;;;;11.57;8.38;;;;;;;-0.40;91.87;99020.94;1656650;85;21581;-68
2020/12/27 01:58:20;;;;;;;10.98;8.00;;;;;;;-0.41;91.85;99027.38;1643095;86;21169;-67
2020/12/27 02:00:48;;;;;;;11.75;8.05;;;;;;;-0.40;91.91;99027.34;1658175;85;21676;-67
2020/12/27 02:03:17;;;;;;;9.03;7.92;;;;;;;-0.41;91.85;99030.79;1656177;85;21396;-68
2020/12/27 02:05:47;;;;;;;9.68;7.95;;;;;;;-0.41;91.82;99016.69;1657429;85;21196;-67
2020/12/27 02:08:18;;;;;;;13.18;8.35;;;;;;;-0.38;91.86;99015.35;1630141;86;21149;-68
2020/12/27 02:10:47;;;;;;;12.25;7.83;;;;;;;-0.38;91.87;99012.79;1650175;85;21230;-68
2020/12/27 02:13:16;;;;;;;10.30;7.53;;;;;;;-0.39;91.69;99005.98;1653969;85;21188;-68
2020/12/27 02:15:44;;;;;;;13.60;8.25;;;;;;;-0.40;91.78;99000.41;1657898;84;21216;-67
2020/12/27 02:18:12;;;;;;;10.50;7.70;;;;;;;-0.42;91.70;98997.45;1657147;85;21071;-68
2020/12/27 02:20:41;;;;;;;12.05;8.03;;;;;;;-0.43;91.76;98994.05;1650691;85;21585;-68
2020/12/27 02:23:15;;;;;;;12.28;8.23;;;;;;;-0.44;91.70;98997.49;1642057;85;21023;-67
2020/12/27 02:25:44;;;;;;;11.33;7.37;;;;;;;-0.44;91.58;98983.39;1653387;84;21109;-67
2020/12/27 02:28:13;;;;;;;10.80;7.67;;;;;;;-0.46;91.68;98982.11;1655609;85;21694;-68
2020/12/27 02:30:41;;;;;;;9.88;7.58;;;;;;;-0.45;91.72;98980.39;1688724;83;21133;-68
2020/12/27 02:33:08;;;;;;;11.35;7.70;;;;;;;-0.44;91.68;98971.00;1689588;83;21067;-68
2020/12/27 02:35:36;;;;;;;9.75;7.17;;;;;;;-0.46;91.67;98958.19;1642970;86;21094;-68
2020/12/27 02:38:04;;;;;;;9.95;7.42;;;;;;;-0.46;91.63;98951.78;1661193;85;21186;-68
2020/12/27 02:40:33;;;;;;;11.60;7.55;;;;;;;-0.48;91.52;98941.97;1662360;85;21182;-67
2020/12/27 02:43:01;;;;;;;12.10;8.00;;;;;;;-0.50;91.63;98946.30;1655558;85;21629;-68
2020/12/27 02:45:28;;;;;;;14.38;8.25;;;;;;;-0.53;91.59;98939.94;1643982;86;21126;-67
2020/12/27 02:47:56;;;;;;;9.80;7.80;;;;;;;-0.57;91.50;98931.86;1653925;85;21075;-67
2020/12/27 02:50:25;;;;;;;11.22;7.00;;;;;;;-0.59;91.54;98928.47;1654361;85;21169;-67
2020/12/27 02:52:53;;;;;;;12.30;8.00;;;;;;;-0.62;91.57;98928.52;1647113;85;21192;-68
2020/12/27 02:55:21;;;;;;;11.63;7.97;;;;;;;-0.65;91.53;98921.70;1660611;84;21158;-68
2020/12/27 02:57:49;;;;;;;12.10;7.95;;;;;;;-0.68;91.61;98917.47;1673462;84;21033;-67
2020/12/27 03:00:17;;;;;;;10.55;7.55;;;;;;;-0.69;91.56;98922.64;1669366;84;21064;-67
2020/12/27 03:02:46;;;;;;;9.48;8.00;;;;;;;-0.69;91.66;98913.23;1675361;84;21174;-67
2020/12/27 03:05:14;;;;;;;13.25;8.58;;;;;;;-0.70;91.54;98906.41;1674396;84;21218;-67
2020/12/27 03:07:42;;;;;;;12.03;8.60;;;;;;;-0.72;91.52;98904.30;1672813;84;21072;-67
2020/12/27 03:10:11;;;;;;;11.38;8.30;;;;;;;-0.73;91.51;98898.77;1671159;83;21135;-67
2020/12/27 03:12:39;;;;;;;14.13;8.55;;;;;;;-0.75;91.55;98886.84;1672284;84;21215;-67
2020/12/27 03:15:07;;;;;;;13.22;8.18;;;;;;;-0.77;91.45;98884.29;1675531;84;21594;-67
2020/12/27 03:17:43;;;;;;;11.35;7.92;;;;;;;-0.81;91.39;98880.09;1673277;84;21224;-67
2020/12/27 03:20:16;;;;;;;11.80;8.33;;;;;;;-0.82;91.46;98880.95;1675837;84;21214;-66
2020/12/27 03:22:41;;;;;;;10.48;7.87;;;;;;;-0.83;91.51;98884.39;1673065;84;21242;-66
2020/12/27 03:25:09;;;;;;;10.23;7.87;;;;;;;-0.83;91.56;98874.13;1671065;84;21207;-67
2020/12/27 03:27:38;;;;;;;12.05;7.70;;;;;;;-0.84;91.56;98875.02;1674134;84;21195;-67
2020/12/27 03:30:06;;;;;;;12.73;7.95;;;;;;;-0.84;91.48;98872.45;1675900;85;21207;-66
2020/12/27 03:32:34;;;;;;;9.78;8.18;;;;;;;-0.83;91.58;98866.45;1673879;84;21206;-68
2020/12/27 03:35:06;;;;;;;11.18;8.08;;;;;;;-0.82;91.54;98868.13;1679005;84;21182;-66
2020/12/27 03:37:36;;;;;;;11.93;7.95;;;;;;;-0.81;91.46;98877.53;1676558;84;21194;-67
2020/12/27 03:40:06;;;;;;;11.93;8.15;;;;;;;-0.81;91.46;98862.16;1672796;84;21620;-67
2020/12/27 03:42:35;;;;;;;12.65;8.28;;;;;;;-0.80;91.47;98861.27;1676871;84;21333;-67
2020/12/27 03:45:04;;;;;;;11.70;8.18;;;;;;;-0.82;91.37;98850.19;1677116;84;21182;-66
2020/12/27 03:47:32;;;;;;;10.93;8.13;;;;;;;-0.84;91.27;98849.39;1675299;84;21238;-67
2020/12/27 03:50:02;;;;;;;10.70;7.87;;;;;;;-0.88;90.96;98838.75;1676992;84;21617;-67
2020/12/27 03:52:31;;;;;;;11.45;7.90;;;;;;;-0.90;91.27;98844.33;1672636;84;21663;-67
2020/12/27 03:54:59;;;;;;;13.38;7.85;;;;;;;-0.94;91.18;98842.70;1672591;83;22212;-67
2020/12/27 03:57:29;;;;;;;10.18;7.78;;;;;;;-0.99;91.25;98838.06;1674917;84;21178;-67
2020/12/27 03:59:57;;;;;;;12.13;7.42;;;;;;;-1.02;91.23;98831.71;1675995;84;21000;-67
2020/12/27 04:02:28;;;;;;;11.65;8.78;;;;;;;-1.07;91.21;98832.20;1677990;84;21254;-66
2020/12/27 04:04:58;;;;;;;13.88;7.90;;;;;;;-1.10;91.15;98824.56;1674834;84;21690;-67
2020/12/27 04:07:32;;;;;;;13.85;7.75;;;;;;;-1.16;91.17;98832.75;1676775;84;21216;-67
2020/12/27 04:10:01;;;;;;;14.43;9.90;;;;;;;-1.21;91.16;98829.39;1678280;84;21626;-66
2020/12/27 04:12:30;;;;;;;14.87;9.18;;;;;;;-1.24;91.26;98824.32;1684671;83;21179;-66
2020/12/27 04:14:58;;;;;;;11.12;8.50;;;;;;;-1.30;91.20;98816.73;1675677;84;21068;-67
2020/12/27 04:17:25;;;;;;;10.90;8.08;;;;;;;-1.32;91.22;98824.02;1675190;85;21012;-67
2020/12/27 04:19:53;;;;;;;11.90;8.40;;;;;;;-1.37;91.09;98813.86;1678625;84;22375;-67
2020/12/27 04:22:22;;;;;;;12.73;7.55;;;;;;;-1.39;91.18;98815.58;1674011;84;21219;-68
2020/12/27 04:24:50;;;;;;;13.65;8.85;;;;;;;-1.41;91.32;98818.16;1676271;84;21170;-66
2020/12/27 04:27:18;;;;;;;10.08;8.10;;;;;;;-1.43;91.25;98812.63;1674623;84;21211;-66
2020/12/27 04:29:46;;;;;;;16.00;8.93;;;;;;;-1.46;91.31;98812.67;1678660;84;21210;-66
2020/12/27 04:32:14;;;;;;;13.75;8.70;;;;;;;-1.48;91.30;98804.20;1675502;84;21283;-66
2020/12/27 04:34:43;;;;;;;12.03;7.90;;;;;;;-1.53;91.19;98813.20;1675522;84;21191;-66
2020/12/27 04:37:11;;;;;;;15.83;8.83;;;;;;;-1.56;91.21;98803.45;1677860;84;21187;-66
2020/12/27 04:39:39;;;;;;;;;;;;;;;-1.61;91.23;98796.66;1689719;83;21164;-66
2020/12/27 04:42:09;;;;;;;12.82;8.50;;;;;;;-1.63;91.21;98795.82;1688907;83;21116;-67
2020/12/27 04:44:39;;;;;;;12.13;7.90;;;;;;;-1.65;91.33;98800.13;1687390;83;21247;-66
2020/12/27 04:47:08;;;;;;;12.43;8.43;;;;;;;-1.65;91.38;98800.58;1664988;84;21224;-65
2020/12/27 04:49:36;;;;;;;15.32;7.67;;;;;;;-1.66;91.39;98804.82;1676278;84;21047;-67
2020/12/27 04:52:06;;;;;;;12.13;7.87;;;;;;;-1.66;91.37;98804.82;1720176;82;21205;-66
2020/12/27 04:54:34;;;;;;;12.50;7.95;;;;;;;-1.66;91.35;98806.10;1713985;82;21278;-66
2020/12/27 04:57:03;;;;;;;14.98;8.35;;;;;;;-1.67;91.33;98804.42;1697057;82;22248;-66
2020/12/27 04:59:31;;;;;;;14.70;8.58;;;;;;;-1.68;91.31;98802.73;1699913;83;21038;-67
2020/12/27 05:02:00;;;;;;;14.07;9.10;;;;;;;-1.68;91.32;98795.06;1648200;85;21182;-66
2020/12/27 05:04:28;;;;;;;14.23;8.70;;;;;;;-1.67;91.38;98804.42;1628233;86;21227;-66
2020/12/27 05:06:56;;;;;;;11.48;7.70;;;;;;;-1.66;91.38;98812.50;1661447;83;21212;-66
2020/12/27 05:09:31;;;;;;;13.60;8.60;;;;;;;-1.63;91.41;98808.62;1648436;86;21246;-66
2020/12/27 05:11:59;;;;;;;13.98;8.68;;;;;;;-1.61;91.39;98805.61;1657711;84;21174;-66
2020/12/27 05:14:28;;;;;;;12.35;9.05;;;;;;;-1.55;91.44;98807.69;1661590;84;21133;-66
2020/12/27 05:16:58;;;;;;;14.78;9.28;;;;;;;-1.53;91.33;98798.28;1661182;85;21229;-67
2020/12/27 05:19:28;;;;;;;13.90;8.48;;;;;;;-1.49;91.36;98803.76;1654362;85;21727;-66
2020/12/27 05:21:59;;;;;;;14.18;9.25;;;;;;;-1.47;91.09;98795.64;1654795;85;21766;-67
2020/12/27 05:24:30;;;;;;;13.62;8.60;;;;;;;-1.45;91.22;98806.71;1659210;84;21221;-67
2020/12/27 05:26:59;;;;;;;13.58;9.45;;;;;;;-1.45;91.25;98792.62;1660492;85;21162;-67
2020/12/27 05:29:33;;;;;;;15.88;8.93;;;;;;;-1.45;91.21;98786.23;1650134;86;21216;-67
2020/12/27 05:32:01;;;;;;;15.10;9.03;;;;;;;-1.45;91.18;98788.34;1660206;85;20975;-67
2020/12/27 05:34:30;;;;;;;12.98;8.78;;;;;;;-1.45;91.05;98786.23;1653376;85;21508;-67
2020/12/27 05:37:01;;;;;;;11.03;8.38;;;;;;;-1.47;91.02;98785.39;1637140;86;21128;-67
2020/12/27 05:39:30;;;;;;;13.53;8.90;;;;;;;-1.47;91.04;98782.83;1663151;84;21128;-67
2020/12/27 05:42:04;;;;;;;13.90;8.63;;;;;;;-1.48;91.08;98790.11;1653239;85;21275;-66
2020/12/27 05:44:35;;;;;;;14.53;8.90;;;;;;;-1.49;91.07;98784.12;1632618;86;21164;-67
2020/12/27 05:47:03;;;;;;;15.08;8.90;;;;;;;-1.50;91.05;98770.08;1653594;85;21860;-66
2020/12/27 05:49:31;;;;;;;12.98;8.85;;;;;;;-1.51;91.05;98763.24;1656439;85;21081;-66
2020/12/27 05:52:00;;;;;;;13.53;8.90;;;;;;;-1.52;91.07;98753.88;1648863;85;21050;-67
2020/12/27 05:54:36;;;;;;;12.35;9.55;;;;;;;-1.52;91.05;98753.44;1654324;84;21177;-66
2020/12/27 05:57:05;;;;;;;14.18;8.78;;;;;;;-1.52;90.95;98747.48;1669538;83;22276;-67
2020/12/27 05:59:37;;;;;;;14.05;9.40;;;;;;;-1.51;90.99;98741.48;1670805;83;22150;-66
2020/12/27 06:02:04;;;;;;;16.40;10.00;;;;;;;-1.51;90.96;98738.92;1674249;83;21042;-67
2020/12/27 06:05:11;;;;;;;13.40;8.78;;;;;;;-1.52;91.06;98751.32;1674159;83;21550;-67
2020/12/27 06:07:46;;;;;;;12.45;8.80;;;;;;;-1.52;91.05;98748.77;1676185;84;21027;-68
2020/12/27 06:10:19;;;;;;;14.58;9.40;;;;;;;-1.53;90.95;98744.52;1678091;83;21179;-67
2020/12/27 06:13:07;;;;;;;15.30;8.95;;;;;;;-1.53;90.96;98744.52;1686294;84;21567;-67
2020/12/27 06:15:41;;;;;;;14.28;9.60;;;;;;;-1.54;90.96;98742.81;1660626;85;21055;-68
2020/12/27 06:18:10;;;;;;;13.40;8.88;;;;;;;-1.56;90.94;98745.41;1674082;84;21586;-67
2020/12/27 06:20:43;;;;;;;11.70;8.88;;;;;;;-1.56;90.92;98736.89;1684353;84;21183;-67
2020/12/27 06:23:15;;;;;;;15.78;9.13;;;;;;;-1.58;90.86;98742.86;1669708;84;21336;-67
2020/12/27 06:25:56;;;;;;;;;;;;;;;;;;;;;
2020/12/27 06:28:35;;;;;;;13.50;9.00;;;;;;;-1.61;90.80;98744.63;1734188;81;21018;-67
2020/12/27 06:31:27;;;;;;;11.10;8.58;;;;;;;-1.64;90.74;98745.51;1734237;81;21182;-68
2020/12/27 06:33:55;;;;;;;12.58;8.15;;;;;;;-1.66;90.83;98744.67;1725882;82;21033;-67
2020/12/27 06:36:36;;;;;;;14.45;8.75;;;;;;;-1.68;90.79;98749.39;1728830;82;21217;-67
2020/12/27 06:39:26;;;;;;;11.90;9.03;;;;;;;-1.70;90.82;98742.20;1720707;82;21203;-67
2020/12/27 06:42:13;;;;;;;15.63;8.65;;;;;;;-1.71;90.83;98746.47;1716791;82;21216;-68
2020/12/27 06:45:30;;;;;;;14.95;8.43;;;;;;;-1.68;90.77;98733.63;1825321;77;23400;-67
2020/12/27 06:47:58;;;;;;;13.20;8.53;;;;;;;-1.70;90.87;98746.88;1798335;78;20986;-67
2020/12/27 06:50:27;;;;;;;11.08;7.47;;;;;;;-1.71;90.64;98725.12;1794830;78;21184;-67
2020/12/27 06:52:58;;;;;;;13.55;8.03;;;;;;;-1.71;90.79;98728.56;1791917;77;21123;-67
2020/12/27 06:55:41;;;;;;;12.33;8.55;;;;;;;-1.72;90.77;98719.17;1805381;78;21131;-67
2020/12/27 06:58:24;;;;;;;14.53;8.33;;;;;;;-1.73;90.65;98716.65;1805436;78;21562;-67
2020/12/27 07:01:20;;;;;;;11.80;7.65;;;;;;;-1.74;90.67;98708.09;1784751;78;21056;-67
2020/12/27 07:03:48;;;;;;;11.20;7.37;;;;;;;-1.74;90.66;98702.98;1796093;78;22862;-67
2020/12/27 07:06:21;;;;;;;13.98;8.78;;;;;;;-1.76;90.54;98694.50;1809399;78;21045;-67
2020/12/27 07:08:50;;;;;;;11.60;7.53;;;;;;;-1.78;90.65;98683.44;1818887;78;21023;-67
2020/12/27 07:11:20;;;;;;;12.18;8.10;;;;;;;-1.79;90.57;98695.83;1810063;78;21164;-67
2020/12/27 07:13:55;;;;;;;14.07;8.38;;;;;;;-1.81;90.54;98688.59;1797340;78;21577;-67
2020/12/27 07:16:37;;;;;;;11.68;8.05;;;;;;;-1.83;90.55;98686.48;1813812;78;21217;-68
2020/12/27 07:19:07;;;;;;;9.95;7.50;;;;;;;-1.83;90.48;98691.60;1809051;78;21644;-67
2020/12/27 07:21:37;;;;;;;12.30;7.62;;;;;;;-1.83;90.48;98690.32;1780842;78;21032;-66
2020/12/27 07:24:15;;;;;;;13.50;7.72;;;;;;;-1.83;90.50;98688.60;1803729;78;21592;-67
2020/12/27 07:26:47;;;;;;;13.60;7.67;;;;;;;-1.84;90.46;98686.08;1772744;78;20980;-67
2020/12/27 07:29:21;;;;;;;11.30;7.30;;;;;;;-1.83;90.42;98680.09;1809651;78;21194;-67
2020/12/27 07:31:52;;;;;;;11.95;7.92;;;;;;;-1.82;90.51;98684.33;1803912;78;21178;-64
2020/12/27 07:34:24;;;;;;;11.78;6.87;;;;;;;-1.80;90.48;98692.83;1797300;78;21514;-65
2020/12/27 07:36:58;;;;;;;17.17;8.20;;;;;;;-1.78;90.38;98674.91;1810857;78;21143;-65
2020/12/27 07:39:53;;;;;;;13.70;7.95;;;;;;;-1.75;90.36;98661.63;1803771;78;21553;-65
2020/12/27 07:42:30;;;;;;;10.48;7.90;;;;;;;-1.73;90.38;98658.63;1805830;78;21339;-67
2020/12/27 07:45:01;;;;;;;12.40;8.10;;;;;;;-1.71;90.34;98657.30;1812518;78;21679;-67
2020/12/27 07:47:29;;;;;;;10.65;7.85;;;;;;;-1.69;90.24;98650.02;1811813;78;20945;-68
2020/12/27 07:50:13;;;;;;;11.00;7.53;;;;;;;-1.68;90.23;98654.29;1803941;78;21130;-67
2020/12/27 07:53:00;;;;;;;15.10;8.23;;;;;;;-1.66;90.12;98637.61;1803276;78;21157;-67
2020/12/27 07:55:36;;;;;;;;;;;;;;;-1.65;90.16;98641.44;1806607;78;21136;-68
2020/12/27 07:58:06;;;;;;;12.23;7.72;;;;;;;-1.66;89.57;98626.94;1802314;78;20486;-67
2020/12/27 08:00:37;;;;;;;13.65;8.40;;;;;;;-1.67;89.84;98632.94;1799009;78;21151;-68
2020/12/27 08:03:07;;;;;;;11.75;8.03;;;;;;;-1.66;89.94;98640.17;1817205;78;21216;-67
2020/12/27 08:05:39;;;;;;;13.50;7.58;;;;;;;-1.67;89.95;98632.94;1792669;78;21114;-68
2020/12/27 08:08:11;;;;;;;10.48;7.17;;;;;;;-1.68;89.51;98626.14;1797744;78;21211;-68
2020/12/27 08:10:40;;;;;;;13.55;8.95;;;;;;;-1.66;89.82;98626.94;1804453;78;21179;-66
2020/12/27 08:13:10;;;;;;;10.45;7.60;;;;;;;-1.65;89.85;98620.97;1802801;78;21102;-67
2020/12/27 08:15:40;;;;;;;14.15;8.78;;;;;;;-1.63;89.76;98620.48;1811317;78;21170;-67
2020/12/27 08:18:11;;;;;;;11.18;7.78;;;;;;;-1.62;89.74;98605.56;1801314;78;21182;-67
2020/12/27 08:20:50;;;;;;;11.55;8.88;;;;;;;-1.59;89.68;98600.39;1787165;78;21210;-67
2020/12/27 08:23:27;;;;;;;14.93;9.58;;;;;;;-1.51;89.39;98585.31;1831999;76;22890;-66
2020/12/27 08:26:00;;;;;;;15.25;9.28;;;;;;;-1.53;89.57;98596.88;1794424;78;21024;-66
2020/12/27 08:28:35;;;;;;;14.80;8.73;;;;;;;-1.51;89.54;98594.28;1797508;78;21424;-66
2020/12/27 08:31:01;;;;;;;18.67;13.80;;;;;;;-1.48;89.44;98585.30;1803924;78;21064;-66
2020/12/27 08:33:34;;;;;;;18.87;13.40;;;;;;;-1.44;89.55;98578.80;1790979;78;21609;-66
2020/12/27 08:36:04;;;;;;;28.32;18.62;;;;;;;-1.41;89.38;98583.02;1797594;78;21613;-66
2020/12/27 08:38:50;;;;;;;;;;;;;;;-1.38;89.39;98575.28;1797928;78;21192;-66
2020/12/27 08:41:26;;;;;;;15.60;9.33;;;;;;;-1.35;89.12;98571.39;1792350;78;22250;-66
2020/12/27 08:44:32;;;;;;;52.85;28.87;;;;;;;-1.33;88.80;98564.53;1788089;78;21087;-66
2020/12/27 08:47:06;;;;;;;20.97;13.13;;;;;;;-1.29;89.12;98561.03;1796893;78;21075;-66
2020/12/27 08:49:42;;;;;;;16.02;9.63;;;;;;;-1.25;89.24;98572.92;1796849;78;21103;-67
2020/12/27 08:52:24;;;;;;;22.70;14.07;;;;;;;-1.21;89.13;98559.17;1795663;78;21165;-67
2020/12/27 08:55:10;;;;;;;14.60;9.75;;;;;;;-1.14;88.70;98546.67;1828608;76;22762;-66
2020/12/27 08:57:44;;;;;;;39.95;21.40;;;;;;;-1.15;88.67;98550.12;1798910;77;21028;-65
2020/12/27 09:00:13;;;;;;;33.20;17.02;;;;;;;-1.10;88.96;98543.61;1794907;78;21764;-66
2020/12/27 09:02:42;;;;;;;22.87;12.60;;;;;;;-1.07;88.80;98538.87;1792671;77;21574;-67
2020/12/27 09:05:14;;;;;;;37.00;23.77;;;;;;;-1.05;88.61;98540.53;1799986;77;21048;-69
2020/12/27 09:07:44;;;;;;;15.65;9.80;;;;;;;-1.04;88.66;98532.41;1792885;78;20960;-67
2020/12/27 09:13:13;;;;;;;18.27;11.15;;;;;;;-0.96;88.59;98533.09;1829222;76;22785;-66
2020/12/27 09:15:51;;;;;;;14.53;9.15;;;;;;;-0.98;88.49;98516.48;1800040;78;21091;-65
2020/12/27 09:18:58;;;;;;;;;;;;;;;;;;;;;
2020/12/27 09:21:45;;;;;;;14.63;9.40;;;;;;;-0.97;88.17;98526.30;1744590;80;21024;-65
2020/12/27 09:24:15;;;;;;;14.73;8.53;;;;;;;-0.97;88.32;98521.17;1745112;80;21146;-66
2020/12/27 09:26:56;;;;;;;15.32;8.80;;;;;;;-0.92;88.14;98507.84;1827765;77;22627;-66
2020/12/27 09:29:40;;;;;;;;;;;;;;;;;;;;;
2020/12/27 09:32:35;;;;;;;14.70;8.58;;;;;;;-0.92;87.82;98495.02;1788654;79;23482;-65
2020/12/27 09:35:07;;;;;;;18.52;8.93;;;;;;;-0.95;87.85;98505.34;1769545;79;25443;-66
2020/12/27 09:37:34;;;;;;;14.85;8.38;;;;;;;-0.94;87.96;98497.60;1767947;79;21215;-65
2020/12/27 09:40:06;;;;;;;17.80;9.43;;;;;;;-0.91;87.98;98506.95;1742760;80;21642;-66
2020/12/27 09:42:37;;;;;;;11.95;8.88;;;;;;;-0.87;88.10;98515.41;1774244;80;21032;-66
2020/12/27 09:45:23;;;;;;;13.15;8.55;;;;;;;-0.83;88.03;98496.55;1772898;80;21616;-66
2020/12/27 09:48:00;;;;;;;13.58;8.10;;;;;;;-0.80;88.09;98496.48;1771801;80;21009;-66
2020/12/27 09:50:33;;;;;;;14.15;8.90;;;;;;;-0.79;87.86;98496.43;1761083;80;21635;-65
2020/12/27 09:53:04;;;;;;;15.48;7.55;;;;;;;-0.76;87.41;98492.97;1762687;80;21097;-67
2020/12/27 09:55:36;;;;;;;12.15;7.62;;;;;;;-0.73;87.64;98491.20;1766932;80;21057;-67
2020/12/27 09:58:04;;;;;;;12.10;8.18;;;;;;;-0.70;87.76;98486.00;1760664;80;21165;-65
2020/12/27 10:00:33;;;;;;;15.93;9.30;;;;;;;-0.65;87.61;98494.02;1761666;80;21077;-65
2020/12/27 10:03:02;;;;;;;15.68;7.80;;;;;;;-0.62;87.56;98480.69;1758884;80;21209;-66
2020/12/27 10:05:29;;;;;;;15.72;7.45;;;;;;;-0.57;87.65;98486.56;1769314;80;21223;-67
2020/12/27 10:07:56;;;;;;;;;;;;;;;-0.53;87.10;98477.11;1768997;80;21043;-66
2020/12/27 10:10:26;;;;;;;17.67;8.65;;;;;;;-0.53;86.87;98475.83;1762789;79;20569;-65
2020/12/27 10:12:54;;;;;;;11.10;7.40;;;;;;;-0.51;87.32;98476.61;1766667;80;21069;-65
2020/12/27 10:15:24;;;;;;;17.12;9.18;;;;;;;-0.50;87.20;98487.29;1782645;79;21200;-65
2020/12/27 10:17:51;;;;;;;13.72;8.30;;;;;;;-0.47;87.31;98482.09;1770305;80;20986;-66
2020/12/27 10:20:19;;;;;;;13.62;9.43;;;;;;;-0.45;87.31;98473.90;1772549;80;21033;-66
2020/12/27 10:22:51;;;;;;;17.92;9.08;;;;;;;-0.43;87.17;98462.34;1772796;79;21136;-65
2020/12/27 10:25:20;;;;;;;16.73;9.05;;;;;;;-0.44;86.87;98458.94;1763324;80;21136;-66
2020/12/27 10:27:48;;;;;;;18.17;8.53;;;;;;;-0.44;86.93;98466.63;1764743;80;21203;-66
2020/12/27 10:30:16;;;;;;;16.52;8.95;;;;;;;-0.47;86.82;98463.70;1768428;80;21018;-66
2020/12/27 10:32:44;;;;;;;14.55;8.50;;;;;;;-0.46;86.63;98436.33;1753933;80;21050;-66
2020/12/27 10:35:12;;;;;;;13.93;8.75;;;;;;;-0.45;86.94;98448.26;1748425;81;21026;-67
2020/12/27 10:37:41;;;;;;;14.00;8.60;;;;;;;-0.45;86.72;98441.84;1762625;80;21007;-65
2020/12/27 10:40:08;;;;;;;14.23;8.43;;;;;;;-0.46;86.68;98435.05;1753256;80;22162;-66
2020/12/27 10:42:39;;;;;;;17.25;9.43;;;;;;;-0.45;86.60;98434.16;1749650;80;21022;-66
2020/12/27 10:45:09;;;;;;;13.08;8.53;;;;;;;-0.43;86.87;98432.41;1741550;80;21042;-66
2020/12/27 10:47:36;;;;;;;11.73;7.83;;;;;;;-0.39;86.31;98409.67;1755371;80;21172;-66
2020/12/27 10:50:05;;;;;;;12.50;7.90;;;;;;;-0.38;86.82;98420.32;1754088;80;21231;-65
2020/12/27 10:52:34;;;;;;;14.33;8.70;;;;;;;-0.36;86.70;98422.42;1749916;80;21379;-66
2020/12/27 10:55:11;;;;;;;13.30;8.53;;;;;;;-0.31;86.55;98422.28;1754378;81;21136;-66
2020/12/27 10:57:40;;;;;;;;;;;;;;;-0.31;86.36;98403.92;1756837;80;20989;-67
2020/12/27 11:00:19;;;;;;;14.38;8.03;;;;;;;-0.29;86.12;98395.72;1839462;77;23925;-66
2020/12/27 11:02:47;;;;;;;13.13;8.03;;;;;;;-0.34;86.20;98398.83;1809266;78;21573;-67
2020/12/27 11:05:15;;;;;;;16.32;9.68;;;;;;;-0.37;86.15;98404.05;1810409;78;21322;-67
2020/12/27 11:07:44;;;;;;;14.73;9.03;;;;;;;-0.39;86.04;98408.39;1808160;78;21037;-67
2020/12/27 11:10:14;;;;;;;11.85;7.72;;;;;;;-0.42;85.73;98398.20;1806664;78;21645;-66
2020/12/27 11:12:44;;;;;;;13.10;7.58;;;;;;;-0.40;86.10;98398.16;1800063;78;22462;-66
2020/12/27 11:15:15;;;;;;;16.07;8.15;;;;;;;-0.41;86.08;98401.16;1808705;78;21010;-67
2020/12/27 11:17:43;;;;;;;14.63;7.55;;;;;;;-0.39;86.16;98398.13;1810501;78;21722;-66
2020/12/27 11:20:13;;;;;;;15.05;9.05;;;;;;;-0.36;85.98;98395.48;1813944;78;21108;-66
2020/12/27 11:22:45;;;;;;;22.42;13.00;;;;;;;-0.36;85.98;98387.80;1807242;78;21384;-66
2020/12/27 11:25:12;;;;;;;13.80;8.28;;;;;;;-0.32;86.28;98397.08;1805657;78;21632;-66
2020/12/27 11:27:41;;;;;;;12.93;7.87;;;;;;;-0.30;86.03;98395.33;1814373;78;21029;-67
2020/12/27 11:30:10;;;;;;;14.75;8.65;;;;;;;-0.30;86.03;98395.33;1807998;78;21357;-67
2020/12/27 11:32:39;;;;;;;19.67;10.70;;;;;;;-0.30;84.96;98383.79;1802971;78;21158;-67
2020/12/27 11:35:09;;;;;;;12.55;7.33;;;;;;;-0.31;85.84;98382.12;1807914;78;21218;-66
2020/12/27 11:37:37;;;;;;;17.02;8.03;;;;;;;-0.35;85.26;98379.66;1807644;78;21140;-66
2020/12/27 11:40:09;;;;;;;15.53;9.08;;;;;;;-0.39;85.13;98382.74;1752782;80;21186;-67
2020/12/27 11:42:39;;;;;;;13.50;7.50;;;;;;;-0.46;84.89;98373.05;1779797;80;21941;-66
2020/12/27 11:45:07;;;;;;;19.90;9.75;;;;;;;-0.48;85.34;98370.13;1778022;80;21682;-67
2020/12/27 11:47:36;;;;;;;13.95;6.83;;;;;;;-0.51;85.22;98362.51;1766008;80;21120;-67
2020/12/27 11:50:05;;;;;;;11.68;7.87;;;;;;;-0.54;85.11;98359.58;1771672;79;21001;-67
2020/12/27 11:52:33;;;;;;;11.15;7.62;;;;;;;-0.54;84.99;98347.20;1764296;80;21150;-67